createdAt,value
2023-02-22T00:01:50.884Z,101200.69
2023-02-22T00:05:58.209Z,101209.47
2023-02-22T00:10:01.581Z,101191.34
2023-02-22T00:14:08.053Z,101189.69
2023-02-22T00:18:34.598Z,101194.50
2023-02-22T00:22:37.787Z,101179.91
2023-02-22T00:26:40.761Z,101175.53
2023-02-22T00:30:45.953Z,101175.31
2023-02-22T00:34:53.135Z,101172.13
2023-02-22T00:38:56.307Z,101175.72
2023-02-22T00:42:59.900Z,101173.88
2023-02-22T00:47:04.773Z,101169.09
2023-02-22T00:51:07.985Z,101163.84
2023-02-22T00:55:17.641Z,101166.19
2023-02-22T00:59:20.763Z,101149.13
2023-02-22T01:03:26.028Z,101147.53
2023-02-22T01:07:29.446Z,101141.09
2023-02-22T01:11:34.197Z,101136.53
2023-02-22T01:15:39.370Z,101139.88
2023-02-22T01:19:44.463Z,101141.38
2023-02-22T01:23:48.407Z,101133.03
2023-02-22T01:27:52.465Z,101129.06
2023-02-22T01:31:57.325Z,101121.34
2023-02-22T01:36:02.031Z,101136.16
2023-02-22T01:40:08.047Z,101123.44
2023-02-22T01:44:23.483Z,101128.63
2023-02-22T01:48:35.367Z,101127.81
2023-02-22T01:52:39.978Z,101131.16
2023-02-22T01:56:51.462Z,101129.25
2023-02-22T02:00:57.548Z,101127.22
2023-02-22T02:05:01.283Z,101126.16
2023-02-22T02:09:11.149Z,101119.91
2023-02-22T02:13:16.089Z,101121.63
2023-02-22T02:17:23.373Z,101109.72
2023-02-22T02:22:03.869Z,101108.44
2023-02-22T02:26:34.173Z,101104.69
2023-02-22T02:30:49.842Z,101093.84
2023-02-22T02:35:02.803Z,101097.41
2023-02-22T02:39:11.968Z,101088.44
2023-02-22T02:43:19.454Z,101089.69
2023-02-22T02:47:26.470Z,101077.47
2023-02-22T02:51:38.174Z,101076.44
2023-02-22T02:55:41.215Z,101065.81
2023-02-22T02:59:44.267Z,101067.06
2023-02-22T03:04:02.988Z,101063.09
2023-02-22T03:08:13.862Z,101058.31
2023-02-22T03:12:28.587Z,101047.66
2023-02-22T03:16:41.003Z,101042.03
2023-02-22T03:20:51.389Z,101033.47
2023-02-22T03:25:07.021Z,101023.88
2023-02-22T03:29:16.168Z,101026.13
2023-02-22T03:33:28.745Z,101021.13
2023-02-22T03:37:37.467Z,101023.22
2023-02-22T03:41:48.520Z,101015.56
2023-02-22T03:45:53.197Z,101012.25
2023-02-22T03:50:01.966Z,101020.81
2023-02-22T03:54:07.015Z,101014.97
2023-02-22T03:58:16.660Z,101013.13
2023-02-22T04:02:20.583Z,101004.00
2023-02-22T04:06:23.779Z,101010.47
2023-02-22T04:10:26.702Z,101002.78
2023-02-22T04:14:31.527Z,101006.56
2023-02-22T04:18:34.900Z,100998.25
2023-02-22T04:22:38.725Z,100999.97
2023-02-22T04:26:42.468Z,100994.53
2023-02-22T04:30:47.069Z,101006.66
2023-02-22T04:34:52.630Z,100999.16
2023-02-22T04:38:55.938Z,101004.34
2023-02-22T04:43:00.178Z,100995.22
2023-02-22T04:47:06.109Z,100991.91
2023-02-22T04:51:10.262Z,100989.19
2023-02-22T04:55:17.189Z,100986.03
2023-02-22T04:59:20.777Z,100986.50
2023-02-22T05:03:31.759Z,100987.09
2023-02-22T05:07:34.751Z,100987.09
2023-02-22T05:11:37.765Z,100971.31
2023-02-22T05:15:41.665Z,100975.28
2023-02-22T05:19:47.632Z,100977.78
2023-02-22T05:23:50.785Z,100973.81
2023-02-22T05:27:55.452Z,100975.34
2023-02-22T05:31:59.245Z,100970.75
2023-02-22T05:36:03.693Z,100973.66
2023-02-22T05:40:07.845Z,100964.91
2023-02-22T05:44:15.267Z,100960.34
2023-02-22T05:48:19.809Z,100953.28
2023-02-22T05:52:30.451Z,100952.00
2023-02-22T05:56:34.085Z,100946.78
2023-02-22T06:00:37.999Z,100951.78
2023-02-22T06:04:44.975Z,100948.03
2023-02-22T06:08:49.644Z,100945.28
2023-02-22T06:12:55.332Z,100941.31
2023-02-22T06:16:59.207Z,100939.84
2023-02-22T06:21:03.143Z,100947.31
2023-02-22T06:25:09.140Z,100946.72
2023-02-22T06:29:12.158Z,100944.88
2023-02-22T06:33:16.045Z,100940.56
2023-02-22T06:37:19.426Z,100943.13
2023-02-22T06:41:24.489Z,100941.88
2023-02-22T06:45:28.462Z,100938.94
2023-02-22T06:49:31.398Z,100928.78
2023-02-22T06:53:35.330Z,100927.16
2023-02-22T06:57:40.260Z,100930.28
2023-02-22T07:01:43.850Z,100930.25
2023-02-22T07:05:46.825Z,100931.72
2023-02-22T07:09:49.747Z,100936.31
2023-02-22T07:13:55.473Z,100937.78
2023-02-22T07:17:59.896Z,100935.03
2023-02-22T07:22:02.781Z,100930.25
2023-02-22T07:26:06.327Z,100929.59
2023-02-22T07:30:17.608Z,100931.47
2023-02-22T07:34:20.701Z,100933.13
2023-02-22T07:38:23.680Z,100932.72
2023-02-22T07:42:26.663Z,100923.13
2023-02-22T07:46:31.012Z,100928.16
2023-02-22T07:50:35.560Z,100927.94
2023-02-22T07:54:39.414Z,100929.16
2023-02-22T07:58:42.395Z,100929.59
2023-02-22T08:02:48.830Z,100930.41
2023-02-22T08:06:51.715Z,100926.53
2023-02-22T08:10:54.719Z,100922.78
2023-02-22T08:14:57.694Z,100918.81
2023-02-22T08:19:02.110Z,100917.19
2023-02-22T08:23:05.974Z,100912.19
2023-02-22T08:27:09.308Z,100903.88
2023-02-22T08:31:12.197Z,100909.69
2023-02-22T08:35:18.159Z,100903.06
2023-02-22T08:39:21.514Z,100896.25
2023-02-22T08:43:25.513Z,100906.25
2023-02-22T08:47:28.432Z,100888.53
2023-02-22T08:51:35.823Z,100895.81
2023-02-22T08:55:41.852Z,100900.13
2023-02-22T08:59:44.753Z,100908.00
2023-02-22T09:03:49.319Z,100910.69
2023-02-22T09:07:53.722Z,100903.66
2023-02-22T09:11:56.854Z,100903.44
2023-02-22T09:15:59.831Z,100921.34
2023-02-22T09:20:07.222Z,100904.63
2023-02-22T09:24:12.059Z,100897.94
2023-02-22T09:28:15.173Z,100900.84
2023-02-22T09:32:19.103Z,100902.44
2023-02-22T09:36:22.469Z,100894.66
2023-02-22T09:40:30.641Z,100886.44
2023-02-22T09:44:39.965Z,100886.34
2023-02-22T09:48:57.911Z,100899.56
2023-02-22T09:53:05.302Z,100888.41
2023-02-22T09:57:16.490Z,100879.50
2023-02-22T10:01:27.005Z,100883.81
2023-02-22T10:05:37.468Z,100872.34
2023-02-22T10:09:43.535Z,100867.47
2023-02-22T10:14:01.610Z,100861.69
2023-02-22T10:18:22.232Z,100861.38
2023-02-22T10:22:40.870Z,100851.78
2023-02-22T10:26:46.779Z,100848.22
2023-02-22T10:30:56.689Z,100846.56
2023-02-22T10:35:05.457Z,100850.91
2023-02-22T10:39:20.958Z,100855.78
2023-02-22T10:43:25.683Z,100846.63
2023-02-22T10:47:30.839Z,100854.09
2023-02-22T10:51:34.007Z,100840.66
2023-02-22T10:55:37.725Z,100841.47
2023-02-22T10:59:43.014Z,100830.63
2023-02-22T11:03:58.352Z,100832.78
2023-02-22T11:08:17.699Z,100829.75
2023-02-22T11:12:28.615Z,100830.81
2023-02-22T11:16:36.169Z,100825.97
2023-02-22T11:20:40.894Z,100817.94
2023-02-22T11:24:50.712Z,100811.66
2023-02-22T11:28:56.278Z,100804.19
2023-02-22T11:33:01.664Z,100809.00
2023-02-22T11:37:30.597Z,100804.03
2023-02-22T11:41:36.084Z,100804.38
2023-02-22T11:45:49.897Z,100791.19
2023-02-22T11:50:02.289Z,100780.47
2023-02-22T11:54:31.546Z,100781.16
2023-02-22T11:58:45.611Z,100767.09
2023-02-22T12:03:19.513Z,100770.25
2023-02-22T12:07:33.699Z,100769.53
2023-02-22T12:11:51.341Z,100770.78
2023-02-22T12:16:03.589Z,100761.50
2023-02-22T12:20:16.361Z,100759.38
2023-02-22T12:24:23.435Z,100749.25
2023-02-22T12:28:37.735Z,100752.41
2023-02-22T12:33:06.295Z,100746.06
2023-02-22T12:37:25.543Z,100747.03
2023-02-22T12:41:35.354Z,100741.41
2023-02-22T12:45:46.352Z,100743.88
2023-02-22T12:49:55.112Z,100740.97
2023-02-22T12:54:06.438Z,100739.38
2023-02-22T12:58:20.421Z,100738.38
2023-02-22T13:02:29.749Z,100740.72
2023-02-22T13:06:48.586Z,100730.25
2023-02-22T13:11:04.409Z,100742.38
2023-02-22T13:15:17.316Z,100731.28
2023-02-22T13:19:34.811Z,100729.81
2023-02-22T13:23:48.816Z,100739.47
2023-02-22T13:27:56.267Z,100725.16
2023-02-22T13:32:18.377Z,100727.63
2023-02-22T13:36:38.448Z,100723.09
2023-02-22T13:41:05.890Z,100725.91
2023-02-22T13:45:44.963Z,100717.03
2023-02-22T13:50:28.135Z,100715.25
2023-02-22T13:54:42.337Z,100716.34
2023-02-22T13:58:53.416Z,100716.69
2023-02-22T14:03:03.434Z,100709.94
2023-02-22T14:07:56.989Z,100694.94
2023-02-22T14:12:01.540Z,100700.69
2023-02-22T14:16:26.543Z,100692.75
2023-02-22T14:20:35.125Z,100691.09
2023-02-22T14:24:45.641Z,100691.31
2023-02-22T14:28:56.237Z,100683.63
2023-02-22T14:33:00.579Z,100698.38
2023-02-22T14:37:07.874Z,100681.09
2023-02-22T14:41:11.078Z,100692.53
2023-02-22T14:45:24.804Z,100680.78
2023-02-22T14:49:31.513Z,100691.16
2023-02-22T14:53:39.299Z,100689.25
2023-02-22T14:57:54.720Z,100679.09
2023-02-22T15:06:35.319Z,100697.16
2023-02-22T15:10:43.857Z,100695.97
2023-02-22T15:14:49.684Z,100687.22
2023-02-22T15:18:55.944Z,100695.09
2023-02-22T15:23:01.383Z,100683.28
2023-02-22T15:27:06.165Z,100682.78
2023-02-22T15:31:24.955Z,100688.91
2023-02-22T15:35:30.780Z,100691.97
2023-02-22T15:39:43.678Z,100687.88
2023-02-22T15:43:46.705Z,100695.22
2023-02-22T15:47:50.936Z,100699.00
2023-02-22T15:52:06.657Z,100688.63
2023-02-22T15:56:15.256Z,100688.06
2023-02-22T16:00:24.294Z,100684.47
2023-02-22T16:04:29.792Z,100692.56
2023-02-22T16:08:54.441Z,100689.28
2023-02-22T16:13:11.143Z,100690.38
2023-02-22T16:17:30.808Z,100693.03
2023-02-22T16:21:53.451Z,100699.25
2023-02-22T16:26:05.318Z,100694.81
2023-02-22T16:30:25.641Z,100695.34
2023-02-22T16:34:29.019Z,100693.94
2023-02-22T16:38:38.349Z,100705.66
2023-02-22T16:42:41.323Z,100700.38
2023-02-22T16:46:45.767Z,100713.41
2023-02-22T16:50:51.295Z,100716.06
2023-02-22T16:54:55.553Z,100712.44
2023-02-22T16:58:59.421Z,100716.78
2023-02-22T17:03:05.518Z,100717.53
2023-02-22T17:07:10.172Z,100711.44
2023-02-22T17:11:15.816Z,100718.97
2023-02-22T17:15:37.238Z,100728.66
2023-02-22T17:19:42.814Z,100728.81
2023-02-22T17:23:46.939Z,100731.16
2023-02-22T17:27:50.184Z,100733.97
2023-02-22T17:31:55.007Z,100727.31
2023-02-22T17:36:02.139Z,100729.13
2023-02-22T17:40:06.754Z,100734.47
2023-02-22T17:44:11.784Z,100738.69
2023-02-22T17:48:16.102Z,100740.72
2023-02-22T17:52:20.755Z,100745.25
2023-02-22T17:56:23.794Z,100749.47
2023-02-22T18:00:34.287Z,100753.44
2023-02-22T18:04:39.516Z,100758.53
2023-02-22T18:08:43.984Z,100755.69
2023-02-22T18:12:48.935Z,100751.16
2023-02-22T18:16:52.307Z,100763.28
2023-02-22T18:20:59.495Z,100753.69
2023-02-22T18:25:04.345Z,100755.44
2023-02-22T18:29:07.591Z,100763.03
2023-02-22T18:33:11.992Z,100768.59
2023-02-22T18:37:20.325Z,100765.22
2023-02-22T18:41:26.349Z,100776.34
2023-02-22T18:45:29.291Z,100771.97
2023-02-22T18:49:41.993Z,100772.19
2023-02-22T18:54:00.056Z,100777.75
2023-02-22T18:58:05.941Z,100792.94
2023-02-22T19:02:13.870Z,100785.25
2023-02-22T19:06:19.165Z,100780.03
2023-02-22T19:10:23.147Z,100778.53
2023-02-22T19:14:27.791Z,100788.00
2023-02-22T19:18:31.639Z,100782.91
2023-02-22T19:22:34.768Z,100781.16
2023-02-22T19:26:38.357Z,100785.44
2023-02-22T19:30:42.960Z,100780.44
2023-02-22T19:34:46.192Z,100780.94
2023-02-22T19:38:50.274Z,100785.69
2023-02-22T19:42:56.008Z,100793.47
2023-02-22T19:47:01.086Z,100781.44
2023-02-22T19:51:07.369Z,100785.69
2023-02-22T19:55:13.466Z,100785.56
2023-02-22T19:59:26.099Z,100785.34
2023-02-22T20:03:34.973Z,100797.50
2023-02-22T20:07:38.393Z,100801.53
2023-02-22T20:11:41.287Z,100797.72
2023-02-22T20:15:45.108Z,100802.94
2023-02-22T20:19:50.402Z,100806.13
2023-02-22T20:23:57.131Z,100799.94
2023-02-22T20:28:00.699Z,100807.59
2023-02-22T20:32:05.581Z,100807.94
2023-02-22T20:36:11.201Z,100813.88
2023-02-22T20:40:14.507Z,100815.75
2023-02-22T20:44:19.524Z,100817.28
2023-02-22T20:48:22.380Z,100814.22
2023-02-22T20:52:27.333Z,100821.75
2023-02-22T20:56:32.066Z,100823.41
2023-02-22T21:00:35.374Z,100833.09
2023-02-22T21:04:38.432Z,100826.00
2023-02-22T21:08:44.459Z,100831.28
2023-02-22T21:12:47.819Z,100828.19
2023-02-22T21:16:52.629Z,100834.34
2023-02-22T21:20:55.689Z,100832.31
2023-02-22T21:24:59.990Z,100836.09
2023-02-22T21:29:05.779Z,100835.72
2023-02-22T21:33:09.028Z,100836.53
2023-02-22T21:37:18.016Z,100835.97
2023-02-22T21:41:27.380Z,100839.50
2023-02-22T21:45:31.794Z,100843.28
2023-02-22T21:49:46.022Z,100838.16
2023-02-22T21:53:53.031Z,100838.63
2023-02-22T21:57:57.706Z,100837.19
2023-02-22T22:02:00.888Z,100835.16
2023-02-22T22:06:10.887Z,100830.56
2023-02-22T22:10:17.940Z,100840.59
2023-02-22T22:14:24.205Z,100838.69
2023-02-22T22:18:27.624Z,100831.44
2023-02-22T22:22:30.577Z,100838.84
2023-02-22T22:26:33.819Z,100838.25
2023-02-22T22:30:39.220Z,100833.28
2023-02-22T22:34:43.508Z,100829.28
2023-02-22T22:38:49.129Z,100836.53
2023-02-22T22:42:54.787Z,100838.50
2023-02-22T22:46:59.162Z,100838.63
2023-02-22T22:51:06.447Z,100842.31
2023-02-22T22:55:11.999Z,100841.84
2023-02-22T22:59:15.257Z,100847.72
2023-02-22T23:03:19.594Z,100849.25
2023-02-22T23:07:22.588Z,100858.69
2023-02-22T23:11:25.609Z,100849.72
2023-02-22T23:15:29.460Z,100839.69
2023-02-22T23:19:35.919Z,100850.09
2023-02-22T23:23:38.995Z,100851.16
2023-02-22T23:27:42.031Z,100851.97
2023-02-22T23:31:47.980Z,100843.69
2023-02-22T23:35:53.468Z,100849.25
2023-02-22T23:39:56.677Z,100853.63
2023-02-22T23:44:00.351Z,100853.63
2023-02-22T23:48:04.541Z,100854.69
2023-02-22T23:52:13.294Z,100853.41
2023-02-22T23:56:18.762Z,100861.78
